sensor_id;sensor_type;location;lat;lon;timestamp;P1;durP1;ratioP1;P2;durP2;ratioP2
21802;SDS011;18591;47.080;22.214;2023-01-19T00:01:59;8.73;;;5.32;;
21802;SDS011;18591;47.080;22.214;2023-01-19T00:04:01;8.00;;;5.13;;
21802;SDS011;18591;47.080;22.214;2023-01-19T00:06:04;8.30;;;5.37;;
21802;SDS011;18591;47.080;22.214;2023-01-19T00:08:10;9.07;;;6.03;;
21802;SDS011;18591;47.080;22.214;2023-01-19T00:10:15;11.40;;;6.23;;
21802;SDS011;18591;47.080;22.214;2023-01-19T00:12:18;10.15;;;6.45;;
21802;SDS011;18591;47.080;22.214;2023-01-19T00:14:20;12.30;;;7.00;;
21802;SDS011;18591;47.080;22.214;2023-01-19T00:16:22;11.00;;;6.80;;
21802;SDS011;18591;47.080;22.214;2023-01-19T00:18:24;11.93;;;7.50;;
21802;SDS011;18591;47.080;22.214;2023-01-19T00:20:26;14.80;;;7.40;;
21802;SDS011;18591;47.080;22.214;2023-01-19T00:22:30;13.53;;;7.93;;
21802;SDS011;18591;47.080;22.214;2023-01-19T00:24:33;11.90;;;7.70;;
21802;SDS011;18591;47.080;22.214;2023-01-19T00:26:35;16.83;;;8.97;;
21802;SDS011;18591;47.080;22.214;2023-01-19T00:28:41;12.67;;;8.30;;
21802;SDS011;18591;47.080;22.214;2023-01-19T00:30:44;16.75;;;8.93;;
21802;SDS011;18591;47.080;22.214;2023-01-19T00:32:47;12.53;;;8.33;;
21802;SDS011;18591;47.080;22.214;2023-01-19T00:34:49;11.10;;;7.07;;
21802;SDS011;18591;47.080;22.214;2023-01-19T00:36:52;11.13;;;6.28;;
21802;SDS011;18591;47.080;22.214;2023-01-19T00:38:54;8.70;;;4.93;;
21802;SDS011;18591;47.080;22.214;2023-01-19T00:40:56;9.80;;;4.53;;
21802;SDS011;18591;47.080;22.214;2023-01-19T00:42:59;9.38;;;4.97;;
21802;SDS011;18591;47.080;22.214;2023-01-19T00:45:05;11.60;;;5.53;;
21802;SDS011;18591;47.080;22.214;2023-01-19T00:47:10;9.00;;;5.50;;
21802;SDS011;18591;47.080;22.214;2023-01-19T00:49:12;10.20;;;5.83;;
21802;SDS011;18591;47.080;22.214;2023-01-19T00:51:15;8.63;;;5.30;;
21802;SDS011;18591;47.080;22.214;2023-01-19T00:53:17;8.83;;;5.43;;
21802;SDS011;18591;47.080;22.214;2023-01-19T00:55:19;9.20;;;5.37;;
21802;SDS011;18591;47.080;22.214;2023-01-19T00:57:22;10.13;;;5.60;;
21802;SDS011;18591;47.080;22.214;2023-01-19T00:59:25;10.57;;;6.03;;
21802;SDS011;18591;47.080;22.214;2023-01-19T01:01:27;8.83;;;5.50;;
21802;SDS011;18591;47.080;22.214;2023-01-19T01:03:46;9.23;;;5.90;;
21802;SDS011;18591;47.080;22.214;2023-01-19T01:05:49;8.20;;;5.30;;
21802;SDS011;18591;47.080;22.214;2023-01-19T01:07:51;9.00;;;5.00;;
21802;SDS011;18591;47.080;22.214;2023-01-19T01:09:53;8.10;;;5.73;;
21802;SDS011;18591;47.080;22.214;2023-01-19T01:11:55;11.07;;;5.70;;
21802;SDS011;18591;47.080;22.214;2023-01-19T01:13:57;10.65;;;5.90;;
21802;SDS011;18591;47.080;22.214;2023-01-19T01:15:59;7.47;;;4.73;;
21802;SDS011;18591;47.080;22.214;2023-01-19T01:18:01;8.45;;;4.25;;
21802;SDS011;18591;47.080;22.214;2023-01-19T01:20:04;7.63;;;4.93;;
21802;SDS011;18591;47.080;22.214;2023-01-19T01:22:07;12.43;;;5.70;;
21802;SDS011;18591;47.080;22.214;2023-01-19T01:24:10;11.03;;;5.90;;
21802;SDS011;18591;47.080;22.214;2023-01-19T01:26:12;8.73;;;5.07;;
21802;SDS011;18591;47.080;22.214;2023-01-19T01:28:14;8.67;;;4.47;;
21802;SDS011;18591;47.080;22.214;2023-01-19T01:30:16;7.70;;;5.18;;
21802;SDS011;18591;47.080;22.214;2023-01-19T01:32:18;6.80;;;4.80;;
21802;SDS011;18591;47.080;22.214;2023-01-19T01:34:21;6.82;;;4.40;;
21802;SDS011;18591;47.080;22.214;2023-01-19T01:36:23;8.18;;;5.07;;
21802;SDS011;18591;47.080;22.214;2023-01-19T01:38:25;8.20;;;5.70;;
21802;SDS011;18591;47.080;22.214;2023-01-19T01:40:27;9.30;;;4.97;;
21802;SDS011;18591;47.080;22.214;2023-01-19T01:42:29;6.57;;;4.67;;
21802;SDS011;18591;47.080;22.214;2023-01-19T01:46:52;8.20;;;4.50;;
21802;SDS011;18591;47.080;22.214;2023-01-19T01:51:03;5.50;;;3.97;;
21802;SDS011;18591;47.080;22.214;2023-01-19T01:53:26;6.37;;;3.60;;
21802;SDS011;18591;47.080;22.214;2023-01-19T01:55:32;5.57;;;3.80;;
21802;SDS011;18591;47.080;22.214;2023-01-19T01:57:40;5.07;;;3.10;;
21802;SDS011;18591;47.080;22.214;2023-01-19T01:59:46;4.13;;;2.50;;
21802;SDS011;18591;47.080;22.214;2023-01-19T02:01:51;5.00;;;2.20;;
21802;SDS011;18591;47.080;22.214;2023-01-19T02:04:14;2.80;;;2.03;;
21802;SDS011;18591;47.080;22.214;2023-01-19T02:06:16;3.23;;;2.07;;
21802;SDS011;18591;47.080;22.214;2023-01-19T02:08:19;2.23;;;1.90;;
21802;SDS011;18591;47.080;22.214;2023-01-19T02:10:47;3.70;;;2.27;;
21802;SDS011;18591;47.080;22.214;2023-01-19T02:13:08;2.57;;;1.60;;
21802;SDS011;18591;47.080;22.214;2023-01-19T02:15:23;2.03;;;1.23;;
21802;SDS011;18591;47.080;22.214;2023-01-19T02:17:25;3.33;;;1.90;;
21802;SDS011;18591;47.080;22.214;2023-01-19T02:19:29;2.17;;;1.60;;
21802;SDS011;18591;47.080;22.214;2023-01-19T02:21:45;3.83;;;2.70;;
21802;SDS011;18591;47.080;22.214;2023-01-19T02:23:55;3.80;;;2.00;;
21802;SDS011;18591;47.080;22.214;2023-01-19T02:25:59;3.60;;;3.00;;
21802;SDS011;18591;47.080;22.214;2023-01-19T02:28:02;3.10;;;2.27;;
21802;SDS011;18591;47.080;22.214;2023-01-19T02:30:05;3.70;;;2.60;;
21802;SDS011;18591;47.080;22.214;2023-01-19T02:32:10;3.20;;;2.00;;
21802;SDS011;18591;47.080;22.214;2023-01-19T02:34:14;4.23;;;2.20;;
21802;SDS011;18591;47.080;22.214;2023-01-19T02:36:20;2.60;;;1.80;;
21802;SDS011;18591;47.080;22.214;2023-01-19T02:38:26;2.13;;;1.87;;
21802;SDS011;18591;47.080;22.214;2023-01-19T02:40:29;1.97;;;1.50;;
21802;SDS011;18591;47.080;22.214;2023-01-19T02:42:34;2.50;;;1.60;;
21802;SDS011;18591;47.080;22.214;2023-01-19T02:44:59;2.97;;;1.63;;
21802;SDS011;18591;47.080;22.214;2023-01-19T02:47:07;2.40;;;1.70;;
21802;SDS011;18591;47.080;22.214;2023-01-19T02:49:09;3.13;;;1.77;;
21802;SDS011;18591;47.080;22.214;2023-01-19T02:53:45;5.53;;;3.03;;
21802;SDS011;18591;47.080;22.214;2023-01-19T02:55:58;38.60;;;22.17;;
21802;SDS011;18591;47.080;22.214;2023-01-19T02:58:27;21.03;;;12.70;;
21802;SDS011;18591;47.080;22.214;2023-01-19T03:00:51;15.03;;;11.43;;
21802;SDS011;18591;47.080;22.214;2023-01-19T03:05:16;19.00;;;16.97;;
21802;SDS011;18591;47.080;22.214;2023-01-19T03:07:24;33.22;;;28.98;;
21802;SDS011;18591;47.080;22.214;2023-01-19T03:09:50;31.17;;;28.00;;
21802;SDS011;18591;47.080;22.214;2023-01-19T03:14:38;36.63;;;30.57;;
21802;SDS011;18591;47.080;22.214;2023-01-19T03:16:48;78.00;;;64.23;;
21802;SDS011;18591;47.080;22.214;2023-01-19T03:19:18;56.85;;;50.63;;
21802;SDS011;18591;47.080;22.214;2023-01-19T03:21:27;52.97;;;43.57;;
21802;SDS011;18591;47.080;22.214;2023-01-19T03:23:32;48.60;;;40.30;;
21802;SDS011;18591;47.080;22.214;2023-01-19T03:25:38;80.77;;;68.83;;
21802;SDS011;18591;47.080;22.214;2023-01-19T03:27:43;65.33;;;53.13;;
21802;SDS011;18591;47.080;22.214;2023-01-19T03:29:49;89.35;;;63.40;;
21802;SDS011;18591;47.080;22.214;2023-01-19T03:31:57;93.23;;;64.43;;
21802;SDS011;18591;47.080;22.214;2023-01-19T03:34:02;60.97;;;43.42;;
21802;SDS011;18591;47.080;22.214;2023-01-19T03:36:18;56.77;;;35.33;;
21802;SDS011;18591;47.080;22.214;2023-01-19T03:38:34;161.03;;;86.93;;
21802;SDS011;18591;47.080;22.214;2023-01-19T03:40:38;148.33;;;87.33;;
21802;SDS011;18591;47.080;22.214;2023-01-19T03:42:41;122.93;;;69.83;;
21802;SDS011;18591;47.080;22.214;2023-01-19T03:44:45;136.85;;;82.45;;
21802;SDS011;18591;47.080;22.214;2023-01-19T03:46:51;146.77;;;86.40;;
21802;SDS011;18591;47.080;22.214;2023-01-19T03:48:54;160.87;;;98.60;;
21802;SDS011;18591;47.080;22.214;2023-01-19T03:50:58;150.10;;;89.40;;
21802;SDS011;18591;47.080;22.214;2023-01-19T03:53:06;116.13;;;71.13;;
21802;SDS011;18591;47.080;22.214;2023-01-19T03:55:13;164.60;;;95.77;;
21802;SDS011;18591;47.080;22.214;2023-01-19T03:57:15;166.77;;;94.27;;
21802;SDS011;18591;47.080;22.214;2023-01-19T03:59:17;148.20;;;86.10;;
21802;SDS011;18591;47.080;22.214;2023-01-19T04:01:20;140.97;;;81.77;;
21802;SDS011;18591;47.080;22.214;2023-01-19T04:03:23;176.23;;;104.80;;
21802;SDS011;18591;47.080;22.214;2023-01-19T04:05:25;126.37;;;76.27;;
21802;SDS011;18591;47.080;22.214;2023-01-19T04:07:28;101.53;;;60.47;;
21802;SDS011;18591;47.080;22.214;2023-01-19T04:09:45;100.38;;;58.50;;
21802;SDS011;18591;47.080;22.214;2023-01-19T04:11:47;114.10;;;70.53;;
21802;SDS011;18591;47.080;22.214;2023-01-19T04:13:49;109.68;;;65.90;;
21802;SDS011;18591;47.080;22.214;2023-01-19T04:15:52;84.10;;;51.93;;
21802;SDS011;18591;47.080;22.214;2023-01-19T04:17:57;126.88;;;73.07;;
21802;SDS011;18591;47.080;22.214;2023-01-19T04:20:00;89.38;;;51.63;;
21802;SDS011;18591;47.080;22.214;2023-01-19T04:22:02;70.38;;;39.85;;
21802;SDS011;18591;47.080;22.214;2023-01-19T04:24:05;34.92;;;20.83;;
21802;SDS011;18591;47.080;22.214;2023-01-19T04:26:07;31.48;;;15.75;;
21802;SDS011;18591;47.080;22.214;2023-01-19T04:28:09;40.72;;;18.80;;
21802;SDS011;18591;47.080;22.214;2023-01-19T04:30:12;26.60;;;10.90;;
21802;SDS011;18591;47.080;22.214;2023-01-19T04:32:14;27.58;;;11.93;;
21802;SDS011;18591;47.080;22.214;2023-01-19T04:34:19;15.18;;;6.82;;
21802;SDS011;18591;47.080;22.214;2023-01-19T04:36:22;19.15;;;8.73;;
21802;SDS011;18591;47.080;22.214;2023-01-19T04:38:24;17.20;;;7.00;;
21802;SDS011;18591;47.080;22.214;2023-01-19T04:40:27;16.42;;;4.80;;
21802;SDS011;18591;47.080;22.214;2023-01-19T04:42:29;21.88;;;5.85;;
21802;SDS011;18591;47.080;22.214;2023-01-19T04:44:31;15.63;;;4.35;;
21802;SDS011;18591;47.080;22.214;2023-01-19T04:46:36;14.45;;;5.70;;
21802;SDS011;18591;47.080;22.214;2023-01-19T04:48:38;19.73;;;6.60;;
21802;SDS011;18591;47.080;22.214;2023-01-19T04:50:42;11.88;;;4.40;;
21802;SDS011;18591;47.080;22.214;2023-01-19T04:52:47;14.82;;;4.18;;
21802;SDS011;18591;47.080;22.214;2023-01-19T04:54:49;15.13;;;5.57;;
21802;SDS011;18591;47.080;22.214;2023-01-19T04:56:51;17.60;;;4.85;;
21802;SDS011;18591;47.080;22.214;2023-01-19T04:58:54;15.02;;;3.88;;
21802;SDS011;18591;47.080;22.214;2023-01-19T05:00:56;18.50;;;5.97;;
21802;SDS011;18591;47.080;22.214;2023-01-19T05:02:58;17.02;;;6.78;;
21802;SDS011;18591;47.080;22.214;2023-01-19T05:05:02;14.23;;;5.80;;
21802;SDS011;18591;47.080;22.214;2023-01-19T05:07:05;19.10;;;5.60;;
21802;SDS011;18591;47.080;22.214;2023-01-19T05:09:07;14.77;;;4.60;;
21802;SDS011;18591;47.080;22.214;2023-01-19T05:11:09;14.18;;;5.50;;
21802;SDS011;18591;47.080;22.214;2023-01-19T05:13:11;15.52;;;5.43;;
21802;SDS011;18591;47.080;22.214;2023-01-19T05:15:14;11.32;;;3.35;;
21802;SDS011;18591;47.080;22.214;2023-01-19T05:17:16;18.45;;;4.85;;
21802;SDS011;18591;47.080;22.214;2023-01-19T05:19:18;11.00;;;4.40;;
21802;SDS011;18591;47.080;22.214;2023-01-19T05:21:21;18.67;;;4.15;;
21802;SDS011;18591;47.080;22.214;2023-01-19T05:23:23;13.05;;;2.90;;
21802;SDS011;18591;47.080;22.214;2023-01-19T05:25:26;12.80;;;2.65;;
21802;SDS011;18591;47.080;22.214;2023-01-19T05:27:28;12.98;;;3.00;;
21802;SDS011;18591;47.080;22.214;2023-01-19T05:29:30;13.73;;;2.83;;
21802;SDS011;18591;47.080;22.214;2023-01-19T05:31:32;13.63;;;3.28;;
21802;SDS011;18591;47.080;22.214;2023-01-19T05:33:35;9.70;;;2.30;;
21802;SDS011;18591;47.080;22.214;2023-01-19T05:35:37;9.18;;;3.08;;
21802;SDS011;18591;47.080;22.214;2023-01-19T05:37:39;10.15;;;2.53;;
21802;SDS011;18591;47.080;22.214;2023-01-19T05:39:41;13.75;;;3.90;;
21802;SDS011;18591;47.080;22.214;2023-01-19T05:41:43;14.10;;;3.67;;
21802;SDS011;18591;47.080;22.214;2023-01-19T05:43:46;8.10;;;3.08;;
21802;SDS011;18591;47.080;22.214;2023-01-19T05:45:48;14.48;;;3.38;;
21802;SDS011;18591;47.080;22.214;2023-01-19T05:47:50;15.32;;;3.80;;
21802;SDS011;18591;47.080;22.214;2023-01-19T05:49:52;12.65;;;3.90;;
21802;SDS011;18591;47.080;22.214;2023-01-19T05:51:54;10.90;;;2.90;;
21802;SDS011;18591;47.080;22.214;2023-01-19T05:53:56;8.98;;;3.15;;
21802;SDS011;18591;47.080;22.214;2023-01-19T05:55:59;11.68;;;3.90;;
21802;SDS011;18591;47.080;22.214;2023-01-19T05:58:02;11.85;;;3.45;;
21802;SDS011;18591;47.080;22.214;2023-01-19T06:00:05;8.35;;;2.30;;
21802;SDS011;18591;47.080;22.214;2023-01-19T06:02:09;6.95;;;2.30;;
21802;SDS011;18591;47.080;22.214;2023-01-19T06:04:11;11.32;;;2.30;;
21802;SDS011;18591;47.080;22.214;2023-01-19T06:06:13;9.93;;;2.72;;
21802;SDS011;18591;47.080;22.214;2023-01-19T06:08:15;6.15;;;1.75;;
21802;SDS011;18591;47.080;22.214;2023-01-19T06:10:18;10.85;;;2.78;;
21802;SDS011;18591;47.080;22.214;2023-01-19T06:12:20;8.48;;;2.00;;
21802;SDS011;18591;47.080;22.214;2023-01-19T06:14:22;9.40;;;1.98;;
21802;SDS011;18591;47.080;22.214;2023-01-19T06:16:25;9.38;;;2.30;;
21802;SDS011;18591;47.080;22.214;2023-01-19T06:18:27;9.32;;;2.00;;
21802;SDS011;18591;47.080;22.214;2023-01-19T06:20:30;8.27;;;1.45;;
21802;SDS011;18591;47.080;22.214;2023-01-19T06:22:32;6.68;;;1.70;;
21802;SDS011;18591;47.080;22.214;2023-01-19T06:24:34;13.85;;;2.50;;
21802;SDS011;18591;47.080;22.214;2023-01-19T06:26:36;9.70;;;2.03;;
21802;SDS011;18591;47.080;22.214;2023-01-19T06:28:38;9.93;;;2.13;;
21802;SDS011;18591;47.080;22.214;2023-01-19T06:30:40;9.27;;;1.40;;
21802;SDS011;18591;47.080;22.214;2023-01-19T06:32:42;6.93;;;1.70;;
21802;SDS011;18591;47.080;22.214;2023-01-19T06:34:44;9.60;;;1.92;;
21802;SDS011;18591;47.080;22.214;2023-01-19T06:36:46;8.23;;;1.90;;
21802;SDS011;18591;47.080;22.214;2023-01-19T06:38:49;7.15;;;1.60;;
21802;SDS011;18591;47.080;22.214;2023-01-19T06:40:52;7.97;;;2.00;;
21802;SDS011;18591;47.080;22.214;2023-01-19T06:43:04;3.42;;;1.42;;
21802;SDS011;18591;47.080;22.214;2023-01-19T06:45:06;7.00;;;2.25;;
21802;SDS011;18591;47.080;22.214;2023-01-19T06:47:10;7.40;;;1.50;;
21802;SDS011;18591;47.080;22.214;2023-01-19T06:49:16;4.18;;;1.45;;
21802;SDS011;18591;47.080;22.214;2023-01-19T06:51:18;2.20;;;1.08;;
21802;SDS011;18591;47.080;22.214;2023-01-19T06:53:20;4.82;;;1.20;;
21802;SDS011;18591;47.080;22.214;2023-01-19T06:55:24;2.28;;;1.20;;
21802;SDS011;18591;47.080;22.214;2023-01-19T06:57:28;3.22;;;1.15;;
21802;SDS011;18591;47.080;22.214;2023-01-19T06:59:32;5.25;;;1.15;;
21802;SDS011;18591;47.080;22.214;2023-01-19T07:01:34;4.13;;;1.05;;
21802;SDS011;18591;47.080;22.214;2023-01-19T07:03:36;4.78;;;1.30;;
21802;SDS011;18591;47.080;22.214;2023-01-19T07:05:39;3.40;;;0.80;;
21802;SDS011;18591;47.080;22.214;2023-01-19T07:07:41;5.53;;;0.93;;
21802;SDS011;18591;47.080;22.214;2023-01-19T07:09:45;2.20;;;0.93;;
21802;SDS011;18591;47.080;22.214;2023-01-19T07:11:48;3.88;;;1.10;;
21802;SDS011;18591;47.080;22.214;2023-01-19T07:13:52;5.13;;;0.90;;
21802;SDS011;18591;47.080;22.214;2023-01-19T07:15:56;3.78;;;1.15;;
21802;SDS011;18591;47.080;22.214;2023-01-19T07:17:58;3.75;;;0.90;;
21802;SDS011;18591;47.080;22.214;2023-01-19T07:20:02;4.43;;;1.00;;
21802;SDS011;18591;47.080;22.214;2023-01-19T07:22:04;5.43;;;1.08;;
21802;SDS011;18591;47.080;22.214;2023-01-19T07:24:06;6.88;;;1.02;;
21802;SDS011;18591;47.080;22.214;2023-01-19T07:26:09;5.00;;;1.05;;
21802;SDS011;18591;47.080;22.214;2023-01-19T07:28:11;4.10;;;0.98;;
21802;SDS011;18591;47.080;22.214;2023-01-19T07:30:16;7.72;;;1.13;;
21802;SDS011;18591;47.080;22.214;2023-01-19T07:32:18;4.88;;;1.05;;
21802;SDS011;18591;47.080;22.214;2023-01-19T07:34:20;3.92;;;1.27;;
21802;SDS011;18591;47.080;22.214;2023-01-19T07:36:23;8.00;;;1.20;;
21802;SDS011;18591;47.080;22.214;2023-01-19T07:38:25;2.53;;;1.02;;
21802;SDS011;18591;47.080;22.214;2023-01-19T07:40:27;4.53;;;1.08;;
21802;SDS011;18591;47.080;22.214;2023-01-19T07:42:29;5.28;;;1.33;;
21802;SDS011;18591;47.080;22.214;2023-01-19T07:44:31;3.20;;;0.90;;
21802;SDS011;18591;47.080;22.214;2023-01-19T07:46:33;3.53;;;1.38;;
21802;SDS011;18591;47.080;22.214;2023-01-19T07:48:36;4.38;;;1.35;;
21802;SDS011;18591;47.080;22.214;2023-01-19T07:50:38;3.63;;;1.10;;
21802;SDS011;18591;47.080;22.214;2023-01-19T07:52:40;4.75;;;1.50;;
21802;SDS011;18591;47.080;22.214;2023-01-19T07:54:42;4.38;;;0.95;;
21802;SDS011;18591;47.080;22.214;2023-01-19T07:56:44;4.20;;;0.90;;
21802;SDS011;18591;47.080;22.214;2023-01-19T07:58:47;3.38;;;1.33;;
21802;SDS011;18591;47.080;22.214;2023-01-19T08:00:50;3.13;;;1.50;;
21802;SDS011;18591;47.080;22.214;2023-01-19T08:02:57;2.97;;;1.17;;
21802;SDS011;18591;47.080;22.214;2023-01-19T08:05:00;4.38;;;1.38;;
21802;SDS011;18591;47.080;22.214;2023-01-19T08:07:03;2.08;;;1.10;;
21802;SDS011;18591;47.080;22.214;2023-01-19T08:09:05;5.53;;;1.58;;
21802;SDS011;18591;47.080;22.214;2023-01-19T08:11:07;5.47;;;1.30;;
21802;SDS011;18591;47.080;22.214;2023-01-19T08:13:09;7.30;;;1.42;;
21802;SDS011;18591;47.080;22.214;2023-01-19T08:15:12;6.45;;;1.45;;
21802;SDS011;18591;47.080;22.214;2023-01-19T08:17:15;3.30;;;1.27;;
21802;SDS011;18591;47.080;22.214;2023-01-19T08:19:17;3.53;;;1.27;;
21802;SDS011;18591;47.080;22.214;2023-01-19T08:21:19;3.10;;;1.20;;
21802;SDS011;18591;47.080;22.214;2023-01-19T08:23:22;2.10;;;1.00;;
21802;SDS011;18591;47.080;22.214;2023-01-19T08:25:24;3.88;;;1.20;;
21802;SDS011;18591;47.080;22.214;2023-01-19T08:27:33;2.53;;;1.27;;
21802;SDS011;18591;47.080;22.214;2023-01-19T08:29:36;4.35;;;1.40;;
21802;SDS011;18591;47.080;22.214;2023-01-19T08:31:37;3.70;;;1.00;;
21802;SDS011;18591;47.080;22.214;2023-01-19T08:33:43;1.73;;;0.80;;
21802;SDS011;18591;47.080;22.214;2023-01-19T08:35:49;6.03;;;1.10;;
21802;SDS011;18591;47.080;22.214;2023-01-19T08:37:53;3.33;;;0.80;;
21802;SDS011;18591;47.080;22.214;2023-01-19T08:39:56;3.08;;;0.90;;
21802;SDS011;18591;47.080;22.214;2023-01-19T08:41:58;1.77;;;0.88;;
21802;SDS011;18591;47.080;22.214;2023-01-19T08:44:01;6.75;;;1.00;;
21802;SDS011;18591;47.080;22.214;2023-01-19T08:46:03;2.72;;;1.10;;
21802;SDS011;18591;47.080;22.214;2023-01-19T08:48:07;1.50;;;1.00;;
21802;SDS011;18591;47.080;22.214;2023-01-19T08:50:10;3.55;;;1.10;;
21802;SDS011;18591;47.080;22.214;2023-01-19T08:52:13;5.82;;;1.10;;
21802;SDS011;18591;47.080;22.214;2023-01-19T08:54:16;2.80;;;1.25;;
21802;SDS011;18591;47.080;22.214;2023-01-19T08:56:22;1.67;;;1.02;;
21802;SDS011;18591;47.080;22.214;2023-01-19T08:58:24;2.35;;;1.02;;
21802;SDS011;18591;47.080;22.214;2023-01-19T09:00:26;2.75;;;1.00;;
21802;SDS011;18591;47.080;22.214;2023-01-19T09:02:28;4.25;;;2.08;;
21802;SDS011;18591;47.080;22.214;2023-01-19T09:04:31;11.35;;;5.88;;
21802;SDS011;18591;47.080;22.214;2023-01-19T09:06:35;6.10;;;2.97;;
21802;SDS011;18591;47.080;22.214;2023-01-19T09:08:37;5.00;;;1.75;;
21802;SDS011;18591;47.080;22.214;2023-01-19T09:10:44;4.90;;;2.55;;
21802;SDS011;18591;47.080;22.214;2023-01-19T09:12:47;7.85;;;4.90;;
21802;SDS011;18591;47.080;22.214;2023-01-19T09:14:50;8.55;;;6.15;;
21802;SDS011;18591;47.080;22.214;2023-01-19T09:16:52;18.77;;;13.27;;
21802;SDS011;18591;47.080;22.214;2023-01-19T09:18:56;15.05;;;11.50;;
21802;SDS011;18591;47.080;22.214;2023-01-19T09:20:59;14.18;;;9.20;;
21802;SDS011;18591;47.080;22.214;2023-01-19T09:23:02;21.02;;;13.85;;
21802;SDS011;18591;47.080;22.214;2023-01-19T09:25:05;7.07;;;5.22;;
21802;SDS011;18591;47.080;22.214;2023-01-19T09:27:08;4.03;;;2.33;;
21802;SDS011;18591;47.080;22.214;2023-01-19T09:29:10;6.82;;;3.15;;
21802;SDS011;18591;47.080;22.214;2023-01-19T09:31:12;6.00;;;2.67;;
21802;SDS011;18591;47.080;22.214;2023-01-19T09:33:18;3.33;;;2.03;;
21802;SDS011;18591;47.080;22.214;2023-01-19T09:35:20;5.22;;;1.73;;
21802;SDS011;18591;47.080;22.214;2023-01-19T09:37:22;6.57;;;2.05;;
21802;SDS011;18591;47.080;22.214;2023-01-19T09:39:24;5.53;;;2.30;;
21802;SDS011;18591;47.080;22.214;2023-01-19T09:41:27;4.13;;;1.98;;
21802;SDS011;18591;47.080;22.214;2023-01-19T09:46:12;3.20;;;2.03;;
21802;SDS011;18591;47.080;22.214;2023-01-19T09:50:33;2.17;;;1.33;;
21802;SDS011;18591;47.080;22.214;2023-01-19T09:52:39;1.80;;;1.33;;
21802;SDS011;18591;47.080;22.214;2023-01-19T09:56:53;5.45;;;2.92;;
21802;SDS011;18591;47.080;22.214;2023-01-19T09:58:56;5.00;;;1.85;;
21802;SDS011;18591;47.080;22.214;2023-01-19T10:01:01;7.40;;;2.17;;
21802;SDS011;18591;47.080;22.214;2023-01-19T10:06:13;4.10;;;2.72;;
21802;SDS011;18591;47.080;22.214;2023-01-19T10:10:38;13.10;;;8.65;;
21802;SDS011;18591;47.080;22.214;2023-01-19T10:17:55;10.98;;;8.60;;
21802;SDS011;18591;47.080;22.214;2023-01-19T10:20:15;11.30;;;7.82;;
21802;SDS011;18591;47.080;22.214;2023-01-19T10:22:24;4.47;;;2.25;;
21802;SDS011;18591;47.080;22.214;2023-01-19T10:24:31;3.20;;;2.25;;
21802;SDS011;18591;47.080;22.214;2023-01-19T10:26:42;9.15;;;3.95;;
21802;SDS011;18591;47.080;22.214;2023-01-19T10:28:49;8.45;;;4.80;;
21802;SDS011;18591;47.080;22.214;2023-01-19T10:30:56;3.92;;;2.22;;
21802;SDS011;18591;47.080;22.214;2023-01-19T10:32:58;4.60;;;2.40;;
21802;SDS011;18591;47.080;22.214;2023-01-19T10:35:05;6.60;;;2.97;;
21802;SDS011;18591;47.080;22.214;2023-01-19T10:37:37;6.60;;;2.65;;
21802;SDS011;18591;47.080;22.214;2023-01-19T10:39:46;3.65;;;2.10;;
21802;SDS011;18591;47.080;22.214;2023-01-19T10:41:53;5.53;;;1.92;;
21802;SDS011;18591;47.080;22.214;2023-01-19T10:44:02;9.15;;;3.28;;
21802;SDS011;18591;47.080;22.214;2023-01-19T10:46:06;5.22;;;1.70;;
21802;SDS011;18591;47.080;22.214;2023-01-19T10:48:18;3.60;;;1.45;;
21802;SDS011;18591;47.080;22.214;2023-01-19T10:50:27;9.40;;;2.35;;
21802;SDS011;18591;47.080;22.214;2023-01-19T10:52:34;5.75;;;2.05;;
21802;SDS011;18591;47.080;22.214;2023-01-19T10:54:37;6.88;;;1.60;;
21802;SDS011;18591;47.080;22.214;2023-01-19T10:56:54;8.80;;;2.75;;
21802;SDS011;18591;47.080;22.214;2023-01-19T10:59:00;4.60;;;1.92;;
21802;SDS011;18591;47.080;22.214;2023-01-19T11:01:22;5.88;;;2.50;;
21802;SDS011;18591;47.080;22.214;2023-01-19T11:03:28;7.85;;;2.40;;
21802;SDS011;18591;47.080;22.214;2023-01-19T11:05:32;7.22;;;2.40;;
21802;SDS011;18591;47.080;22.214;2023-01-19T11:07:34;3.08;;;1.40;;
21802;SDS011;18591;47.080;22.214;2023-01-19T11:09:37;5.55;;;1.90;;
21802;SDS011;18591;47.080;22.214;2023-01-19T11:11:46;6.13;;;1.60;;
21802;SDS011;18591;47.080;22.214;2023-01-19T11:14:01;3.47;;;1.60;;
21802;SDS011;18591;47.080;22.214;2023-01-19T11:20:52;5.28;;;1.65;;
21802;SDS011;18591;47.080;22.214;2023-01-19T11:25:19;4.00;;;2.28;;
21802;SDS011;18591;47.080;22.214;2023-01-19T11:27:24;8.90;;;1.88;;
21802;SDS011;18591;47.080;22.214;2023-01-19T11:29:27;8.02;;;2.17;;
21802;SDS011;18591;47.080;22.214;2023-01-19T11:31:34;5.47;;;1.92;;
21802;SDS011;18591;47.080;22.214;2023-01-19T11:33:58;11.80;;;3.78;;
21802;SDS011;18591;47.080;22.214;2023-01-19T11:36:02;16.90;;;3.20;;
21802;SDS011;18591;47.080;22.214;2023-01-19T11:40:15;12.45;;;4.97;;
21802;SDS011;18591;47.080;22.214;2023-01-19T11:42:18;23.00;;;8.90;;
21802;SDS011;18591;47.080;22.214;2023-01-19T11:44:31;12.55;;;5.35;;
21802;SDS011;18591;47.080;22.214;2023-01-19T11:46:36;11.35;;;3.90;;
21802;SDS011;18591;47.080;22.214;2023-01-19T11:48:42;6.80;;;2.50;;
21802;SDS011;18591;47.080;22.214;2023-01-19T11:51:03;6.45;;;2.15;;
21802;SDS011;18591;47.080;22.214;2023-01-19T11:57:36;8.23;;;2.85;;
21802;SDS011;18591;47.080;22.214;2023-01-19T11:59:48;8.80;;;2.25;;
21802;SDS011;18591;47.080;22.214;2023-01-19T12:01:55;8.27;;;2.35;;
21802;SDS011;18591;47.080;22.214;2023-01-19T12:04:10;8.23;;;2.35;;
21802;SDS011;18591;47.080;22.214;2023-01-19T12:06:18;10.80;;;2.25;;
21802;SDS011;18591;47.080;22.214;2023-01-19T12:08:28;8.60;;;2.60;;
21802;SDS011;18591;47.080;22.214;2023-01-19T12:10:35;11.43;;;2.10;;
21802;SDS011;18591;47.080;22.214;2023-01-19T12:12:42;12.00;;;2.60;;
21802;SDS011;18591;47.080;22.214;2023-01-19T12:14:55;9.25;;;2.80;;
21802;SDS011;18591;47.080;22.214;2023-01-19T12:17:01;7.47;;;2.65;;
21802;SDS011;18591;47.080;22.214;2023-01-19T12:19:14;7.93;;;2.42;;
21802;SDS011;18591;47.080;22.214;2023-01-19T12:21:18;11.90;;;2.47;;
21802;SDS011;18591;47.080;22.214;2023-01-19T12:27:49;14.77;;;2.75;;
21802;SDS011;18591;47.080;22.214;2023-01-19T12:29:52;11.40;;;2.92;;
21802;SDS011;18591;47.080;22.214;2023-01-19T12:39:00;11.77;;;2.83;;
21802;SDS011;18591;47.080;22.214;2023-01-19T12:41:56;10.25;;;1.98;;
21802;SDS011;18591;47.080;22.214;2023-01-19T12:43:39;11.75;;;3.25;;
21802;SDS011;18591;47.080;22.214;2023-01-19T12:45:41;12.85;;;4.80;;
21802;SDS011;18591;47.080;22.214;2023-01-19T12:47:49;11.68;;;5.10;;
21802;SDS011;18591;47.080;22.214;2023-01-19T12:49:56;17.00;;;3.97;;
21802;SDS011;18591;47.080;22.214;2023-01-19T12:57:07;10.00;;;4.60;;
21802;SDS011;18591;47.080;22.214;2023-01-19T12:59:24;15.20;;;7.05;;
21802;SDS011;18591;47.080;22.214;2023-01-19T13:01:27;16.30;;;6.13;;
21802;SDS011;18591;47.080;22.214;2023-01-19T13:15:34;12.77;;;5.70;;
21802;SDS011;18591;47.080;22.214;2023-01-19T13:17:49;24.15;;;8.57;;
21802;SDS011;18591;47.080;22.214;2023-01-19T13:19:59;11.93;;;5.88;;
21802;SDS011;18591;47.080;22.214;2023-01-19T13:25:05;31.33;;;13.88;;
21802;SDS011;18591;47.080;22.214;2023-01-19T13:27:11;17.00;;;7.85;;
21802;SDS011;18591;47.080;22.214;2023-01-19T13:31:36;14.85;;;7.50;;
21802;SDS011;18591;47.080;22.214;2023-01-19T13:33:54;8.88;;;5.00;;